Arctic Village, Alaska
Current Conditions -  °F | °C
As of 7:16 AM on Tuesday 21 Oct 2014 (Local Time) from PARC Reporting Station
Overcast Overcast  
Wind Chill: -8°   Ceiling: 2500
Heat Index: -4°   Visibility: 5mi
Dew Point: -7°   Wind: 6mph
Humidity: 80%   Direction: 20°NNE
Pressure: 29.5"   Gusts: NA
Location:  68.13°N, 145.54°W
Report Text: PARC 211516Z AUTO 02005KT 5SM OVC025 M04/M07 A2950 RMK AO1
Loading
Personal Weather Stations






























Interactive Weather Map
Tropical Storm Tracking
New forecast layout! Learn more

10-Day Weather Forecast

Advertisements
Track Severe Weather on mobile